sensor_id;sensor_type;location;lat;lon;timestamp;temperature;humidity
35313;DHT22;21425;50.454;30.466;2023-04-24T00:00:14;10.60;63.30
35313;DHT22;21425;50.454;30.466;2023-04-24T00:02:40;9.80;62.20
35313;DHT22;21425;50.454;30.466;2023-04-24T00:05:06;10.20;63.90
35313;DHT22;21425;50.454;30.466;2023-04-24T00:07:32;10.20;64.10
35313;DHT22;21425;50.454;30.466;2023-04-24T00:09:58;10.20;62.40
35313;DHT22;21425;50.454;30.466;2023-04-24T00:12:24;9.70;62.30
35313;DHT22;21425;50.454;30.466;2023-04-24T00:14:49;9.90;62.90
35313;DHT22;21425;50.454;30.466;2023-04-24T00:17:15;10.40;60.80
35313;DHT22;21425;50.454;30.466;2023-04-24T00:19:40;10.20;59.70
35313;DHT22;21425;50.454;30.466;2023-04-24T00:22:06;10.40;58.70
35313;DHT22;21425;50.454;30.466;2023-04-24T00:24:32;10.20;58.90
35313;DHT22;21425;50.454;30.466;2023-04-24T00:29:26;9.30;58.30
35313;DHT22;21425;50.454;30.466;2023-04-24T00:31:51;10.40;59.40
35313;DHT22;21425;50.454;30.466;2023-04-24T00:34:17;10.00;58.60
35313;DHT22;21425;50.454;30.466;2023-04-24T00:36:43;9.70;59.60
35313;DHT22;21425;50.454;30.466;2023-04-24T00:39:08;10.00;59.40
35313;DHT22;21425;50.454;30.466;2023-04-24T00:41:35;9.90;58.10
35313;DHT22;21425;50.454;30.466;2023-04-24T00:44:00;9.80;59.40
35313;DHT22;21425;50.454;30.466;2023-04-24T00:46:26;9.70;60.00
35313;DHT22;21425;50.454;30.466;2023-04-24T00:48:51;10.40;60.20
35313;DHT22;21425;50.454;30.466;2023-04-24T00:51:17;9.90;59.60
35313;DHT22;21425;50.454;30.466;2023-04-24T00:53:43;10.00;59.20
35313;DHT22;21425;50.454;30.466;2023-04-24T00:56:08;10.70;59.40
35313;DHT22;21425;50.454;30.466;2023-04-24T00:58:34;9.50;57.20
35313;DHT22;21425;50.454;30.466;2023-04-24T01:01:00;9.90;56.60
35313;DHT22;21425;50.454;30.466;2023-04-24T01:03:28;10.50;58.30
35313;DHT22;21425;50.454;30.466;2023-04-24T01:05:54;10.50;58.00
35313;DHT22;21425;50.454;30.466;2023-04-24T01:08:20;10.60;59.30
35313;DHT22;21425;50.454;30.466;2023-04-24T01:10:46;10.50;59.10
35313;DHT22;21425;50.454;30.466;2023-04-24T01:18:04;11.40;59.10
35313;DHT22;21425;50.454;30.466;2023-04-24T01:20:29;9.90;59.10
35313;DHT22;21425;50.454;30.466;2023-04-24T01:25:21;9.10;59.20
35313;DHT22;21425;50.454;30.466;2023-04-24T01:27:47;12.00;60.40
35313;DHT22;21425;50.454;30.466;2023-04-24T01:30:13;12.00;60.30
35313;DHT22;21425;50.454;30.466;2023-04-24T01:32:38;10.40;57.70
35313;DHT22;21425;50.454;30.466;2023-04-24T01:35:05;9.40;57.50
35313;DHT22;21425;50.454;30.466;2023-04-24T01:37:30;10.20;58.30
35313;DHT22;21425;50.454;30.466;2023-04-24T01:39:57;10.20;57.50
35313;DHT22;21425;50.454;30.466;2023-04-24T01:42:23;12.40;58.60
35313;DHT22;21425;50.454;30.466;2023-04-24T01:44:49;10.40;56.50
35313;DHT22;21425;50.454;30.466;2023-04-24T01:47:14;10.40;55.60
35313;DHT22;21425;50.454;30.466;2023-04-24T01:49:40;9.50;55.40
35313;DHT22;21425;50.454;30.466;2023-04-24T01:52:06;12.70;56.60
35313;DHT22;21425;50.454;30.466;2023-04-24T01:56:57;11.50;56.50
35313;DHT22;21425;50.454;30.466;2023-04-24T01:59:23;12.00;56.30
35313;DHT22;21425;50.454;30.466;2023-04-24T02:01:50;10.60;55.60
35313;DHT22;21425;50.454;30.466;2023-04-24T02:04:15;10.50;55.60
35313;DHT22;21425;50.454;30.466;2023-04-24T02:06:41;10.40;54.50
35313;DHT22;21425;50.454;30.466;2023-04-24T02:09:06;11.80;55.60
35313;DHT22;21425;50.454;30.466;2023-04-24T02:11:32;10.20;54.50
35313;DHT22;21425;50.454;30.466;2023-04-24T02:13:58;9.70;54.30
35313;DHT22;21425;50.454;30.466;2023-04-24T02:16:23;9.60;54.60
35313;DHT22;21425;50.454;30.466;2023-04-24T02:18:49;10.40;54.30
35313;DHT22;21425;50.454;30.466;2023-04-24T02:21:14;10.70;54.90
35313;DHT22;21425;50.454;30.466;2023-04-24T02:23:40;10.60;55.10
35313;DHT22;21425;50.454;30.466;2023-04-24T02:26:05;9.80;54.60
35313;DHT22;21425;50.454;30.466;2023-04-24T02:28:31;10.70;55.40
35313;DHT22;21425;50.454;30.466;2023-04-24T02:30:56;10.70;55.50
35313;DHT22;21425;50.454;30.466;2023-04-24T02:33:22;9.60;54.30
35313;DHT22;21425;50.454;30.466;2023-04-24T02:35:48;12.70;55.60
35313;DHT22;21425;50.454;30.466;2023-04-24T02:38:13;10.40;55.10
35313;DHT22;21425;50.454;30.466;2023-04-24T02:40:39;10.20;54.80
35313;DHT22;21425;50.454;30.466;2023-04-24T02:43:04;10.70;55.80
35313;DHT22;21425;50.454;30.466;2023-04-24T02:45:30;10.70;55.70
35313;DHT22;21425;50.454;30.466;2023-04-24T02:47:55;10.60;55.50
35313;DHT22;21425;50.454;30.466;2023-04-24T02:50:21;10.30;55.50
35313;DHT22;21425;50.454;30.466;2023-04-24T02:52:46;10.00;55.70
35313;DHT22;21425;50.454;30.466;2023-04-24T02:55:12;9.70;55.50
35313;DHT22;21425;50.454;30.466;2023-04-24T02:57:37;12.00;55.50
35313;DHT22;21425;50.454;30.466;2023-04-24T03:00:03;9.30;54.70
35313;DHT22;21425;50.454;30.466;2023-04-24T03:02:31;12.00;56.10
35313;DHT22;21425;50.454;30.466;2023-04-24T03:04:56;9.70;55.10
35313;DHT22;21425;50.454;30.466;2023-04-24T03:07:22;10.20;55.00
35313;DHT22;21425;50.454;30.466;2023-04-24T03:12:15;9.50;53.70
35313;DHT22;21425;50.454;30.466;2023-04-24T03:14:43;10.70;55.20
35313;DHT22;21425;50.454;30.466;2023-04-24T03:19:34;12.10;56.40
35313;DHT22;21425;50.454;30.466;2023-04-24T03:22:01;12.00;55.50
35313;DHT22;21425;50.454;30.466;2023-04-24T03:26:53;9.80;52.70
35313;DHT22;21425;50.454;30.466;2023-04-24T03:29:19;12.10;53.70
35313;DHT22;21425;50.454;30.466;2023-04-24T03:31:44;12.80;54.30
35313;DHT22;21425;50.454;30.466;2023-04-24T03:36:35;9.60;54.30
35313;DHT22;21425;50.454;30.466;2023-04-24T03:39:01;12.80;55.20
35313;DHT22;21425;50.454;30.466;2023-04-24T03:41:26;12.70;55.20
35313;DHT22;21425;50.454;30.466;2023-04-24T03:43:52;13.20;55.00
35313;DHT22;21425;50.454;30.466;2023-04-24T03:46:17;11.30;54.00
35313;DHT22;21425;50.454;30.466;2023-04-24T03:48:43;11.40;54.20
35313;DHT22;21425;50.454;30.466;2023-04-24T03:53:34;12.60;56.20
35313;DHT22;21425;50.454;30.466;2023-04-24T03:56:00;13.50;54.90
35313;DHT22;21425;50.454;30.466;2023-04-24T03:58:25;14.00;54.50
35313;DHT22;21425;50.454;30.466;2023-04-24T04:00:51;14.10;52.60
35313;DHT22;21425;50.454;30.466;2023-04-24T04:03:16;11.30;51.80
35313;DHT22;21425;50.454;30.466;2023-04-24T04:05:42;12.90;53.00
35313;DHT22;21425;50.454;30.466;2023-04-24T04:08:07;13.70;53.60
35313;DHT22;21425;50.454;30.466;2023-04-24T04:12:58;14.30;54.40
35313;DHT22;21425;50.454;30.466;2023-04-24T04:15:25;14.00;55.40
35313;DHT22;21425;50.454;30.466;2023-04-24T04:17:50;14.40;55.30
35313;DHT22;21425;50.454;30.466;2023-04-24T04:20:16;12.20;51.40
35313;DHT22;21425;50.454;30.466;2023-04-24T04:22:41;14.50;50.60
35313;DHT22;21425;50.454;30.466;2023-04-24T04:25:07;14.10;50.20
35313;DHT22;21425;50.454;30.466;2023-04-24T04:27:33;13.70;49.40
35313;DHT22;21425;50.454;30.466;2023-04-24T04:30:00;14.60;49.10
35313;DHT22;21425;50.454;30.466;2023-04-24T04:32:31;14.70;49.00
35313;DHT22;21425;50.454;30.466;2023-04-24T04:34:56;14.30;49.70
35313;DHT22;21425;50.454;30.466;2023-04-24T04:39:47;14.50;45.20
35313;DHT22;21425;50.454;30.466;2023-04-24T04:42:13;14.60;42.70
35313;DHT22;21425;50.454;30.466;2023-04-24T04:44:39;14.10;42.20
35313;DHT22;21425;50.454;30.466;2023-04-24T04:47:05;14.00;43.70
35313;DHT22;21425;50.454;30.466;2023-04-24T04:49:31;14.90;41.90
35313;DHT22;21425;50.454;30.466;2023-04-24T04:51:56;14.50;41.70
35313;DHT22;21425;50.454;30.466;2023-04-24T04:54:22;14.90;40.90
35313;DHT22;21425;50.454;30.466;2023-04-24T04:56:49;13.80;39.80
35313;DHT22;21425;50.454;30.466;2023-04-24T04:59:15;14.50;40.00
35313;DHT22;21425;50.454;30.466;2023-04-24T05:04:06;16.40;42.50
35313;DHT22;21425;50.454;30.466;2023-04-24T05:06:32;16.50;41.30
35313;DHT22;21425;50.454;30.466;2023-04-24T05:08:57;14.00;39.90
35313;DHT22;21425;50.454;30.466;2023-04-24T05:11:23;13.80;39.60
35313;DHT22;21425;50.454;30.466;2023-04-24T05:13:48;16.10;41.20
35313;DHT22;21425;50.454;30.466;2023-04-24T05:16:14;14.00;39.40
35313;DHT22;21425;50.454;30.466;2023-04-24T05:18:39;17.40;41.10
35313;DHT22;21425;50.454;30.466;2023-04-24T05:21:05;16.40;41.00
35313;DHT22;21425;50.454;30.466;2023-04-24T05:23:31;13.70;40.10
35313;DHT22;21425;50.454;30.466;2023-04-24T05:30:48;13.60;40.70
35313;DHT22;21425;50.454;30.466;2023-04-24T05:33:14;13.50;42.30
35313;DHT22;21425;50.454;30.466;2023-04-24T05:40:31;16.10;44.90
35313;DHT22;21425;50.454;30.466;2023-04-24T05:45:23;14.20;41.30
35313;DHT22;21425;50.454;30.466;2023-04-24T05:47:48;13.70;41.60
35313;DHT22;21425;50.454;30.466;2023-04-24T05:50:14;16.70;41.30
35313;DHT22;21425;50.454;30.466;2023-04-24T05:52:40;15.90;41.90
35313;DHT22;21425;50.454;30.466;2023-04-24T05:55:05;18.20;42.00
35313;DHT22;21425;50.454;30.466;2023-04-24T05:57:31;16.00;38.70
35313;DHT22;21425;50.454;30.466;2023-04-24T06:02:23;16.40;37.60
35313;DHT22;21425;50.454;30.466;2023-04-24T06:04:48;16.60;36.90
35313;DHT22;21425;50.454;30.466;2023-04-24T06:07:14;17.40;36.60
35313;DHT22;21425;50.454;30.466;2023-04-24T06:09:39;19.10;37.00
35313;DHT22;21425;50.454;30.466;2023-04-24T06:12:05;17.30;35.10
35313;DHT22;21425;50.454;30.466;2023-04-24T06:14:32;17.10;34.40
35313;DHT22;21425;50.454;30.466;2023-04-24T06:16:58;19.20;35.20
35313;DHT22;21425;50.454;30.466;2023-04-24T06:19:23;20.00;35.50
35313;DHT22;21425;50.454;30.466;2023-04-24T06:21:49;18.40;35.10
35313;DHT22;21425;50.454;30.466;2023-04-24T06:24:14;19.10;35.50
35313;DHT22;21425;50.454;30.466;2023-04-24T06:26:41;17.60;35.10
35313;DHT22;21425;50.454;30.466;2023-04-24T06:31:33;18.70;35.00
35313;DHT22;21425;50.454;30.466;2023-04-24T06:34:02;18.10;34.10
35313;DHT22;21425;50.454;30.466;2023-04-24T06:36:28;18.50;34.20
35313;DHT22;21425;50.454;30.466;2023-04-24T06:41:19;18.00;35.20
35313;DHT22;21425;50.454;30.466;2023-04-24T06:43:45;18.50;35.60
35313;DHT22;21425;50.454;30.466;2023-04-24T06:46:11;18.70;35.20
35313;DHT22;21425;50.454;30.466;2023-04-24T06:48:37;18.70;34.80
35313;DHT22;21425;50.454;30.466;2023-04-24T06:51:02;16.70;32.70
35313;DHT22;21425;50.454;30.466;2023-04-24T06:53:28;18.40;34.00
35313;DHT22;21425;50.454;30.466;2023-04-24T06:55:54;17.10;34.00
35313;DHT22;21425;50.454;30.466;2023-04-24T06:58:20;17.40;34.30
35313;DHT22;21425;50.454;30.466;2023-04-24T07:00:45;17.10;34.10
35313;DHT22;21425;50.454;30.466;2023-04-24T07:03:11;17.50;34.00
35313;DHT22;21425;50.454;30.466;2023-04-24T07:05:36;15.10;30.80
35313;DHT22;21425;50.454;30.466;2023-04-24T07:08:03;18.40;32.80
35313;DHT22;21425;50.454;30.466;2023-04-24T07:10:29;17.40;33.00
35313;DHT22;21425;50.454;30.466;2023-04-24T07:12:54;15.20;30.80
35313;DHT22;21425;50.454;30.466;2023-04-24T07:17:47;17.70;31.60
35313;DHT22;21425;50.454;30.466;2023-04-24T07:20:12;17.60;30.00
35313;DHT22;21425;50.454;30.466;2023-04-24T07:22:39;16.10;29.90
35313;DHT22;21425;50.454;30.466;2023-04-24T07:25:06;18.50;31.40
35313;DHT22;21425;50.454;30.466;2023-04-24T07:27:32;18.10;29.90
35313;DHT22;21425;50.454;30.466;2023-04-24T07:29:58;18.40;31.20
35313;DHT22;21425;50.454;30.466;2023-04-24T07:32:23;18.50;30.80
35313;DHT22;21425;50.454;30.466;2023-04-24T07:34:49;17.70;30.50
35313;DHT22;21425;50.454;30.466;2023-04-24T07:39:40;19.00;31.40
35313;DHT22;21425;50.454;30.466;2023-04-24T07:42:06;17.70;30.90
35313;DHT22;21425;50.454;30.466;2023-04-24T07:49:23;17.70;29.80
35313;DHT22;21425;50.454;30.466;2023-04-24T07:51:49;17.90;32.20
35313;DHT22;21425;50.454;30.466;2023-04-24T07:56:41;17.80;31.60
35313;DHT22;21425;50.454;30.466;2023-04-24T07:59:08;18.20;31.30
35313;DHT22;21425;50.454;30.466;2023-04-24T08:01:35;17.50;31.30
35313;DHT22;21425;50.454;30.466;2023-04-24T08:04:00;17.60;31.60
35313;DHT22;21425;50.454;30.466;2023-04-24T08:06:26;19.00;33.00
35313;DHT22;21425;50.454;30.466;2023-04-24T08:08:55;18.80;32.00
35313;DHT22;21425;50.454;30.466;2023-04-24T08:11:21;18.40;31.30
35313;DHT22;21425;50.454;30.466;2023-04-24T08:13:47;18.30;31.40
35313;DHT22;21425;50.454;30.466;2023-04-24T08:16:12;18.20;31.20
35313;DHT22;21425;50.454;30.466;2023-04-24T08:18:38;18.80;30.80
35313;DHT22;21425;50.454;30.466;2023-04-24T08:21:03;18.80;30.50
35313;DHT22;21425;50.454;30.466;2023-04-24T08:23:29;18.00;29.90
35313;DHT22;21425;50.454;30.466;2023-04-24T08:25:55;18.50;30.80
35313;DHT22;21425;50.454;30.466;2023-04-24T08:33:13;18.90;29.90
35313;DHT22;21425;50.454;30.466;2023-04-24T08:35:38;18.30;29.90
35313;DHT22;21425;50.454;30.466;2023-04-24T08:40:30;18.80;29.60
35313;DHT22;21425;50.454;30.466;2023-04-24T08:42:59;18.80;30.00
35313;DHT22;21425;50.454;30.466;2023-04-24T08:50:18;17.60;28.80
35313;DHT22;21425;50.454;30.466;2023-04-24T08:55:10;18.20;29.20
35313;DHT22;21425;50.454;30.466;2023-04-24T09:00:04;18.30;28.10
35313;DHT22;21425;50.454;30.466;2023-04-24T09:02:31;18.30;27.50
35313;DHT22;21425;50.454;30.466;2023-04-24T09:04:57;19.00;28.80
35313;DHT22;21425;50.454;30.466;2023-04-24T09:07:24;18.30;28.90
35313;DHT22;21425;50.454;30.466;2023-04-24T09:09:51;18.50;28.10
35313;DHT22;21425;50.454;30.466;2023-04-24T09:14:43;18.40;27.90
35313;DHT22;21425;50.454;30.466;2023-04-24T09:17:10;18.40;28.60
35313;DHT22;21425;50.454;30.466;2023-04-24T09:22:05;18.60;29.40
35313;DHT22;21425;50.454;30.466;2023-04-24T09:24:31;21.50;30.00
35313;DHT22;21425;50.454;30.466;2023-04-24T09:26:57;21.20;28.70
35313;DHT22;21425;50.454;30.466;2023-04-24T09:29:32;21.50;27.70
35313;DHT22;21425;50.454;30.466;2023-04-24T09:31:58;21.10;26.60
35313;DHT22;21425;50.454;30.466;2023-04-24T09:34:25;19.20;25.40
35313;DHT22;21425;50.454;30.466;2023-04-24T09:39:17;18.60;24.70
35313;DHT22;21425;50.454;30.466;2023-04-24T09:44:20;20.80;24.10
35313;DHT22;21425;50.454;30.466;2023-04-24T09:46:49;21.50;24.20
35313;DHT22;21425;50.454;30.466;2023-04-24T09:51:41;21.30;24.70
35313;DHT22;21425;50.454;30.466;2023-04-24T10:01:31;21.70;26.00
35313;DHT22;21425;50.454;30.466;2023-04-24T10:13:42;21.40;27.50
35313;DHT22;21425;50.454;30.466;2023-04-24T10:23:26;17.80;26.60
35313;DHT22;21425;50.454;30.466;2023-04-24T10:25:52;18.00;26.70
35313;DHT22;21425;50.454;30.466;2023-04-24T10:28:18;17.90;26.00
35313;DHT22;21425;50.454;30.466;2023-04-24T10:30:44;19.00;25.50
35313;DHT22;21425;50.454;30.466;2023-04-24T10:42:55;21.10;25.70
35313;DHT22;21425;50.454;30.466;2023-04-24T10:45:21;20.60;25.70
35313;DHT22;21425;50.454;30.466;2023-04-24T10:50:13;18.80;25.80
35313;DHT22;21425;50.454;30.466;2023-04-24T10:55:05;21.50;26.00
35313;DHT22;21425;50.454;30.466;2023-04-24T11:04:49;21.40;24.90
35313;DHT22;21425;50.454;30.466;2023-04-24T11:17:30;18.50;22.60
35313;DHT22;21425;50.454;30.466;2023-04-24T11:24:49;20.80;24.50
35313;DHT22;21425;50.454;30.466;2023-04-24T11:27:16;18.10;24.00
35313;DHT22;21425;50.454;30.466;2023-04-24T11:29:44;20.40;25.00
35313;DHT22;21425;50.454;30.466;2023-04-24T11:37:21;17.50;25.40
35313;DHT22;21425;50.454;30.466;2023-04-24T11:39:46;20.30;27.40
35313;DHT22;21425;50.454;30.466;2023-04-24T11:47:04;20.70;29.10
35313;DHT22;21425;50.454;30.466;2023-04-24T11:56:48;17.10;32.40
35313;DHT22;21425;50.454;30.466;2023-04-24T12:09:00;18.20;35.90
35313;DHT22;21425;50.454;30.466;2023-04-24T12:13:51;18.20;36.80
35313;DHT22;21425;50.454;30.466;2023-04-24T12:18:45;17.20;36.50
35313;DHT22;21425;50.454;30.466;2023-04-24T12:21:20;17.70;37.70
35313;DHT22;21425;50.454;30.466;2023-04-24T12:26:15;17.20;37.00
35313;DHT22;21425;50.454;30.466;2023-04-24T12:28:42;17.50;36.40
35313;DHT22;21425;50.454;30.466;2023-04-24T12:31:07;16.80;35.90
35313;DHT22;21425;50.454;30.466;2023-04-24T12:33:33;16.90;36.50
35313;DHT22;21425;50.454;30.466;2023-04-24T12:43:18;16.70;37.10
35313;DHT22;21425;50.454;30.466;2023-04-24T12:45:43;16.50;36.30
35313;DHT22;21425;50.454;30.466;2023-04-24T12:50:36;16.50;36.70
35313;DHT22;21425;50.454;30.466;2023-04-24T12:53:01;16.30;36.70
35313;DHT22;21425;50.454;30.466;2023-04-24T12:55:27;17.20;35.50
35313;DHT22;21425;50.454;30.466;2023-04-24T13:00:20;18.10;33.10
35313;DHT22;21425;50.454;30.466;2023-04-24T13:05:11;18.10;32.40
35313;DHT22;21425;50.454;30.466;2023-04-24T13:10:05;21.00;30.90
35313;DHT22;21425;50.454;30.466;2023-04-24T13:12:31;19.00;29.30
35313;DHT22;21425;50.454;30.466;2023-04-24T13:14:57;19.10;29.10
35313;DHT22;21425;50.454;30.466;2023-04-24T13:17:22;20.90;28.80
35313;DHT22;21425;50.454;30.466;2023-04-24T13:22:14;23.20;29.30
35313;DHT22;21425;50.454;30.466;2023-04-24T13:24:39;19.50;26.80
35313;DHT22;21425;50.454;30.466;2023-04-24T13:27:06;21.20;26.30
35313;DHT22;21425;50.454;30.466;2023-04-24T13:29:32;21.60;25.80
35313;DHT22;21425;50.454;30.466;2023-04-24T13:31:57;22.60;23.90
35313;DHT22;21425;50.454;30.466;2023-04-24T13:34:23;25.60;22.50
35313;DHT22;21425;50.454;30.466;2023-04-24T13:36:52;27.50;20.70
35313;DHT22;21425;50.454;30.466;2023-04-24T13:44:12;24.90;23.20
35313;DHT22;21425;50.454;30.466;2023-04-24T13:51:29;26.00;19.20
35313;DHT22;21425;50.454;30.466;2023-04-24T13:53:55;25.90;20.80
35313;DHT22;21425;50.454;30.466;2023-04-24T13:58:47;26.30;22.10
35313;DHT22;21425;50.454;30.466;2023-04-24T14:01:13;26.00;20.70
35313;DHT22;21425;50.454;30.466;2023-04-24T14:03:40;25.30;20.40
35313;DHT22;21425;50.454;30.466;2023-04-24T14:06:05;25.30;21.40
35313;DHT22;21425;50.454;30.466;2023-04-24T14:08:31;24.70;23.70
35313;DHT22;21425;50.454;30.466;2023-04-24T14:10:57;23.70;23.80
35313;DHT22;21425;50.454;30.466;2023-04-24T14:13:22;23.40;26.40
35313;DHT22;21425;50.454;30.466;2023-04-24T14:15:48;20.20;27.20
35313;DHT22;21425;50.454;30.466;2023-04-24T14:18:14;20.80;28.40
35313;DHT22;21425;50.454;30.466;2023-04-24T14:23:05;20.60;27.90
35313;DHT22;21425;50.454;30.466;2023-04-24T14:25:31;20.30;29.20
35313;DHT22;21425;50.454;30.466;2023-04-24T14:27:56;17.60;31.10
35313;DHT22;21425;50.454;30.466;2023-04-24T14:32:48;20.30;34.60
35313;DHT22;21425;50.454;30.466;2023-04-24T14:35:13;17.80;33.00
35313;DHT22;21425;50.454;30.466;2023-04-24T14:44:59;19.40;32.70
35313;DHT22;21425;50.454;30.466;2023-04-24T14:47:25;20.60;31.80
35313;DHT22;21425;50.454;30.466;2023-04-24T14:52:16;24.60;25.90
35313;DHT22;21425;50.454;30.466;2023-04-24T14:54:42;25.80;24.50
35313;DHT22;21425;50.454;30.466;2023-04-24T14:57:08;24.90;24.70
35313;DHT22;21425;50.454;30.466;2023-04-24T14:59:33;23.90;24.60
35313;DHT22;21425;50.454;30.466;2023-04-24T15:01:59;26.80;24.80
35313;DHT22;21425;50.454;30.466;2023-04-24T15:04:25;24.80;23.40
35313;DHT22;21425;50.454;30.466;2023-04-24T15:06:54;23.90;23.10
35313;DHT22;21425;50.454;30.466;2023-04-24T15:09:23;24.90;21.60
35313;DHT22;21425;50.454;30.466;2023-04-24T15:11:49;28.70;22.50
35313;DHT22;21425;50.454;30.466;2023-04-24T15:14:15;30.20;22.40
35313;DHT22;21425;50.454;30.466;2023-04-24T15:16:41;27.10;21.20
35313;DHT22;21425;50.454;30.466;2023-04-24T15:19:07;27.50;21.40
35313;DHT22;21425;50.454;30.466;2023-04-24T15:21:32;24.40;21.40
35313;DHT22;21425;50.454;30.466;2023-04-24T15:28:50;23.40;21.60
35313;DHT22;21425;50.454;30.466;2023-04-24T15:33:42;24.90;22.30
35313;DHT22;21425;50.454;30.466;2023-04-24T15:36:09;26.40;23.50
35313;DHT22;21425;50.454;30.466;2023-04-24T15:38:34;22.50;23.10
35313;DHT22;21425;50.454;30.466;2023-04-24T15:43:26;25.80;25.60
35313;DHT22;21425;50.454;30.466;2023-04-24T15:45:54;25.90;23.50
35313;DHT22;21425;50.454;30.466;2023-04-24T15:48:19;26.80;24.10
35313;DHT22;21425;50.454;30.466;2023-04-24T15:50:45;23.40;22.00
35313;DHT22;21425;50.454;30.466;2023-04-24T15:53:10;24.20;22.60
35313;DHT22;21425;50.454;30.466;2023-04-24T15:55:36;22.70;21.90
35313;DHT22;21425;50.454;30.466;2023-04-24T15:58:02;24.60;23.10
35313;DHT22;21425;50.454;30.466;2023-04-24T16:00:27;24.90;22.90
35313;DHT22;21425;50.454;30.466;2023-04-24T16:03:00;25.60;23.40
35313;DHT22;21425;50.454;30.466;2023-04-24T16:05:26;25.90;23.70
35313;DHT22;21425;50.454;30.466;2023-04-24T16:07:52;22.10;23.30
35313;DHT22;21425;50.454;30.466;2023-04-24T16:10:17;22.70;23.60
35313;DHT22;21425;50.454;30.466;2023-04-24T16:12:42;21.90;23.80
35313;DHT22;21425;50.454;30.466;2023-04-24T16:17:34;25.40;24.70
35313;DHT22;21425;50.454;30.466;2023-04-24T16:19:59;25.90;25.40
35313;DHT22;21425;50.454;30.466;2023-04-24T16:22:25;25.40;25.30
35313;DHT22;21425;50.454;30.466;2023-04-24T16:24:51;22.10;24.30
35313;DHT22;21425;50.454;30.466;2023-04-24T16:27:16;23.10;25.20
35313;DHT22;21425;50.454;30.466;2023-04-24T16:32:08;25.00;26.80
35313;DHT22;21425;50.454;30.466;2023-04-24T16:34:34;21.60;26.30
35313;DHT22;21425;50.454;30.466;2023-04-24T16:37:00;21.90;27.20
35313;DHT22;21425;50.454;30.466;2023-04-24T16:39:26;22.60;27.70
35313;DHT22;21425;50.454;30.466;2023-04-24T16:41:51;21.80;27.70
35313;DHT22;21425;50.454;30.466;2023-04-24T16:44:18;22.40;27.90
35313;DHT22;21425;50.454;30.466;2023-04-24T16:46:44;21.20;27.90
35313;DHT22;21425;50.454;30.466;2023-04-24T16:49:09;21.00;28.50
35313;DHT22;21425;50.454;30.466;2023-04-24T16:51:35;21.40;29.40
35313;DHT22;21425;50.454;30.466;2023-04-24T16:56:26;20.50;30.70
35313;DHT22;21425;50.454;30.466;2023-04-24T16:58:52;15.90;30.60
35313;DHT22;21425;50.454;30.466;2023-04-24T17:01:17;15.50;31.50
35313;DHT22;21425;50.454;30.466;2023-04-24T17:03:43;18.10;34.60
35313;DHT22;21425;50.454;30.466;2023-04-24T17:06:08;18.50;36.40
35313;DHT22;21425;50.454;30.466;2023-04-24T17:08:34;14.60;35.30
35313;DHT22;21425;50.454;30.466;2023-04-24T17:11:00;14.70;36.80
35313;DHT22;21425;50.454;30.466;2023-04-24T17:15:51;15.50;39.40
35313;DHT22;21425;50.454;30.466;2023-04-24T17:18:17;14.40;39.90
35313;DHT22;21425;50.454;30.466;2023-04-24T17:25:36;15.80;42.50
35313;DHT22;21425;50.454;30.466;2023-04-24T17:28:02;15.80;43.30
35313;DHT22;21425;50.454;30.466;2023-04-24T17:30:28;15.00;43.60
35313;DHT22;21425;50.454;30.466;2023-04-24T17:32:53;14.30;44.10
35313;DHT22;21425;50.454;30.466;2023-04-24T17:35:19;15.20;44.90
35313;DHT22;21425;50.454;30.466;2023-04-24T17:37:44;13.90;44.30
35313;DHT22;21425;50.454;30.466;2023-04-24T17:40:10;13.60;44.70
35313;DHT22;21425;50.454;30.466;2023-04-24T17:42:35;15.10;45.60
35313;DHT22;21425;50.454;30.466;2023-04-24T17:45:06;15.20;46.80
35313;DHT22;21425;50.454;30.466;2023-04-24T17:47:31;14.50;47.20
35313;DHT22;21425;50.454;30.466;2023-04-24T17:49:57;15.20;47.60
35313;DHT22;21425;50.454;30.466;2023-04-24T17:52:22;12.80;45.90
35313;DHT22;21425;50.454;30.466;2023-04-24T17:54:48;13.70;46.40
35313;DHT22;21425;50.454;30.466;2023-04-24T17:57:14;15.10;47.70
35313;DHT22;21425;50.454;30.466;2023-04-24T17:59:40;15.00;48.50
35313;DHT22;21425;50.454;30.466;2023-04-24T18:02:05;13.80;47.60
35313;DHT22;21425;50.454;30.466;2023-04-24T18:06:57;13.30;47.30
35313;DHT22;21425;50.454;30.466;2023-04-24T18:09:23;15.40;48.30
35313;DHT22;21425;50.454;30.466;2023-04-24T18:14:14;12.70;47.60
35313;DHT22;21425;50.454;30.466;2023-04-24T18:16:40;10.50;47.20
35313;DHT22;21425;50.454;30.466;2023-04-24T18:19:06;13.00;48.50
35313;DHT22;21425;50.454;30.466;2023-04-24T18:21:31;15.50;49.90
35313;DHT22;21425;50.454;30.466;2023-04-24T18:23:57;10.80;47.10
35313;DHT22;21425;50.454;30.466;2023-04-24T18:26:25;11.30;47.50
35313;DHT22;21425;50.454;30.466;2023-04-24T18:28:50;15.60;49.50
35313;DHT22;21425;50.454;30.466;2023-04-24T18:31:16;15.80;49.10
35313;DHT22;21425;50.454;30.466;2023-04-24T18:33:42;11.20;47.70
35313;DHT22;21425;50.454;30.466;2023-04-24T18:36:08;11.60;48.40
35313;DHT22;21425;50.454;30.466;2023-04-24T18:38:33;14.50;50.00
35313;DHT22;21425;50.454;30.466;2023-04-24T18:41:01;14.00;50.10
35313;DHT22;21425;50.454;30.466;2023-04-24T18:43:26;10.90;48.90
35313;DHT22;21425;50.454;30.466;2023-04-24T18:45:52;13.90;51.10
35313;DHT22;21425;50.454;30.466;2023-04-24T18:48:18;10.70;50.60
35313;DHT22;21425;50.454;30.466;2023-04-24T18:50:43;11.50;50.70
35313;DHT22;21425;50.454;30.466;2023-04-24T18:53:09;12.30;51.80
35313;DHT22;21425;50.454;30.466;2023-04-24T18:55:37;13.90;52.80
35313;DHT22;21425;50.454;30.466;2023-04-24T19:00:29;12.00;52.90
35313;DHT22;21425;50.454;30.466;2023-04-24T19:02:55;12.40;53.60
35313;DHT22;21425;50.454;30.466;2023-04-24T19:05:20;11.70;53.70
35313;DHT22;21425;50.454;30.466;2023-04-24T19:07:46;11.90;53.40
35313;DHT22;21425;50.454;30.466;2023-04-24T19:10:11;11.60;53.60
35313;DHT22;21425;50.454;30.466;2023-04-24T19:12:37;12.00;54.60
35313;DHT22;21425;50.454;30.466;2023-04-24T19:15:03;11.40;54.00
35313;DHT22;21425;50.454;30.466;2023-04-24T19:17:28;12.60;55.10
35313;DHT22;21425;50.454;30.466;2023-04-24T19:19:56;12.40;55.20
35313;DHT22;21425;50.454;30.466;2023-04-24T19:22:21;14.20;57.20
35313;DHT22;21425;50.454;30.466;2023-04-24T19:24:47;12.30;56.80
35313;DHT22;21425;50.454;30.466;2023-04-24T19:32:06;11.90;59.90
35313;DHT22;21425;50.454;30.466;2023-04-24T19:36:59;12.70;62.20
35313;DHT22;21425;50.454;30.466;2023-04-24T19:39:24;12.70;64.50
35313;DHT22;21425;50.454;30.466;2023-04-24T19:41:50;12.60;65.10